Latest Coastal Weather Observations for Whyalla

IDS60701

Issued at 7:51 pm CST Thursday 30 July 2015 (issued every 10 minutes, with the page automatically refreshed every 10 minutes)

About coastal observations | Map of coastal stations | Coastal observations for SA | Marine services | Other Formats
Station Details ID: 018120 Name: WHYALLA AERO Lat: -33.05 Lon: 137.52 Height: 6.5 m
Data from the previous 72 hours. | See also: Recent months at Whyalla
Date/Time
CST
Temp

°C
Wind Pressure Rain
since 9am
mm
Weather Cloud Vis
km
Sea
Height
m
Swell
Dir
 
Speed
knots
Gust
knots
hPa Trend Height
m
Period
s
Dir
30/07:30pm 12.7 SE 5 6 1021.0 - 0.0 - Partly cloudy 10 - - - -
30/07:00pm 13.3 ESE 4 6 1020.9 - 0.0 - Partly cloudy 10 - - - -
30/06:30pm 13.4 ESE 6 8 1020.5 - 0.0 - Partly cloudy 10 - - - -
30/06:00pm 14.1 SE 8 12 1020.0 - 0.0 - - 10 - - - -
30/05:30pm 17.8 WSW 6 8 1019.5 - 0.0 - - 10 - - - -
30/05:00pm 18.2 WNW 5 8 1019.1 - 0.0 - - 10 - - - -
30/04:30pm 19.2 WNW 11 14 1018.9 - 0.0 - - 10 - - - -
30/04:00pm 20.2 WNW 11 16 1018.9 - 0.0 - - 10 - - - -
30/03:30pm 19.7 NW 13 19 1018.8 - 0.0 - - 10 - - - -
30/03:00pm 19.9 NW 15 21 1018.8 - 0.0 - - 10 - - - -
30/02:30pm 19.5 NNW 18 25 1018.6 - 0.0 - - 10 - - - -
30/02:05pm 19.8 NW 18 28 1018.3 - 0.0 - - 10 - - - -
30/02:00pm 19.7 NW 20 28 1018.4 - 0.0 - - 10 - - - -
30/01:30pm 18.6 NNW 20 25 1018.6 - 0.0 - - 10 - - - -
30/01:00pm 17.2 NNW 20 27 1019.1 - 0.0 - Partly cloudy 10 - - - -
30/12:30pm 16.4 NNW 21 28 1019.9 - 0.0 - Partly cloudy 10 - - - -
30/12:00pm 15.5 NNW 22 28 1020.4 - 0.0 - Cloudy 10 - - - -
30/11:30am 14.1 NNW 21 27 1021.0 - 0.0 - Partly cloudy 10 - - - -
30/11:00am 13.1 N 18 24 1021.0 - 0.0 - Partly cloudy 10 - - - -
30/10:30am 12.6 NNW 19 23 1020.9 - 0.0 - - 10 - - - -
30/10:00am 11.9 NNW 21 28 1021.0 - 0.0 - Partly cloudy 10 - - - -
30/09:30am 12.1 NNW 20 26 1021.0 - 0.0 - Partly cloudy 10 - - - -
30/09:00am 11.8 NNW 21 27 1021.1 - 0.0 - Cloudy 10 - - - -
30/08:31am 11.2 NNW 20 30 1021.0 - 0.0 - Partly cloudy 10 - - - -
30/08:30am 11.2 NNW 20 28 1020.9 - 0.0 - Partly cloudy 10 - - - -
30/08:00am 10.6 NNW 19 28 1020.8 - 0.0 - Partly cloudy 10 - - - -
30/07:30am 10.3 NNW 21 28 1020.6 - 0.0 - Partly cloudy 10 - - - -
30/07:00am 10.2 NNW 21 27 1020.5 - 0.0 - Partly cloudy 10 - - - -
30/06:30am 10.2 NNW 19 28 1020.3 - 0.0 - Partly cloudy 10 - - - -
30/06:00am 10.1 NNW 17 24 1020.9 - 0.0 - Cloudy 10 - - - -
30/05:30am 10.2 NNW 17 23 1020.8 - 0.0 - Partly cloudy 10 - - - -
30/05:00am 10.2 NNW 16 22 1021.1 - 0.0 - Partly cloudy 10 - - - -
30/04:30am 9.9 N 15 19 1021.1 - 0.0 - Partly cloudy 10 - - - -
30/04:00am 9.9 N 13 17 1021.4 - 0.0 - Partly cloudy 10 - - - -
30/03:30am 10.3 N 16 21 1021.6 - 0.0 - Cloudy 10 - - - -
30/03:00am 10.4 N 16 25 1021.9 - 0.0 - Mostly clear 10 - - - -
30/02:30am 11.0 N 14 21 1022.3 - 0.0 - Cloudy 10 - - - -
30/02:00am 11.3 N 12 16 1022.6 - 0.0 - Cloudy 10 - - - -
30/01:30am 10.2 N 11 13 1022.7 - 0.0 - Cloudy 10 - - - -
30/01:00am 10.2 N 13 17 1022.9 - 0.0 - Partly cloudy 10 - - - -
30/12:30am 9.8 N 11 15 1023.1 - 0.0 - - 10 - - - -
30/12:00am 9.6 NNW 11 14 1023.7 - 0.0 - Mostly cloudy 10 - - - -
 
Date/Time
CST
Temp

°C
Wind Pressure Rain
since 9am
mm
Weather Cloud Vis
km
Sea
Height
m
Swell
Dir
 
Speed
knots
Gust
knots
hPa Trend Height
m
Period
s
Dir
29/11:30pm 10.1 N 13 17 1023.5 - 0.0 - - 10 - - - -
29/11:00pm 8.8 N 9 11 1024.2 - 0.0 - - 10 - - - -
29/10:30pm 7.5 NNW 8 9 1024.3 - 0.0 - - 10 - - - -
29/10:00pm 8.5 NNW 9 11 1024.3 - 0.0 - - 10 - - - -
29/09:30pm 9.5 N 10 13 1024.5 - 0.0 - - 10 - - - -
29/09:00pm 8.5 N 9 11 1025.0 - 0.0 - Mostly cloudy 10 - - - -
29/08:30pm 7.8 N 7 9 1025.1 - 0.0 - - 10 - - - -
29/08:00pm 9.6 N 8 12 1025.3 - 0.0 - - 10 - - - -
29/07:30pm 12.0 N 9 12 1025.4 - 0.0 - - 10 - - - -
29/07:00pm 12.4 N 9 12 1025.3 - 0.0 - - 10 - - - -
29/06:30pm 13.0 N 11 14 1025.0 - 0.0 - Partly cloudy 10 - - - -
29/06:00pm 12.6 NNE 6 8 1025.0 - 0.0 - Partly cloudy 10 - - - -
29/05:30pm 13.9 N 10 13 1024.8 - 0.0 - - 10 - - - -
29/05:00pm 14.3 N 14 19 1025.2 - 0.0 - - 10 - - - -
29/04:30pm 15.2 N 17 23 1025.4 - 0.0 - - 10 - - - -
29/04:00pm 15.6 N 13 20 1025.3 - 0.0 - - 10 - - - -
29/03:30pm 15.5 N 14 19 1025.5 - 0.0 - - 10 - - - -
29/03:00pm 16.0 N 15 21 1025.9 - 0.0 - Partly cloudy 10 - - - -
29/02:30pm 15.0 N 13 19 1026.2 - 0.0 - - 10 - - - -
29/02:00pm 14.8 N 15 21 1026.5 - 0.0 - - 10 - - - -
29/01:30pm 13.7 N 15 20 1027.3 - 0.0 - - 10 - - - -
29/01:00pm 13.5 N 16 23 1028.0 - 0.0 - - 10 - - - -
29/12:30pm 13.5 N 16 22 1028.4 - 0.0 - - 10 - - - -
29/12:00pm 13.4 N 16 22 1029.1 - 0.0 - Mostly cloudy 10 - - - -
29/11:30am 13.0 N 14 19 1029.7 - 0.0 - - 10 - - - -
29/11:00am 12.1 N 11 14 1029.9 - 0.0 - - 10 - - - -
29/10:30am 11.3 N 11 17 1029.6 - 0.0 - - 10 - - - -
29/10:00am 10.6 N 10 13 1030.4 - 0.0 - - 10 - - - -
29/09:30am 9.5 NNW 8 10 1031.0 - 0.0 - - 10 - - - -
29/09:00am 9.0 N 9 12 1030.8 - 0.0 - Mostly cloudy 10 - - - -
29/08:30am 8.5 N 9 12 1030.7 - 0.0 - - 10 - - - -
29/08:00am 7.1 N 5 9 1031.4 - 0.0 - - 10 - - - -
29/07:30am 4.6 N 5 6 1031.2 - 0.0 - - 10 - - - -
29/07:00am 4.3 NW 6 8 1031.0 - 0.0 - - 10 - - - -
29/06:30am 3.4 NNW 7 8 1030.3 - 0.0 - - 10 - - - -
29/06:00am 3.3 W 3 5 1030.2 - 0.0 - Cloudy 10 - - - -
29/05:30am 3.3 NNW 4 5 1030.0 - 0.0 - - 10 - - - -
29/05:00am 3.3 NW 4 5 1030.2 - 0.0 - - 10 - - - -
29/04:30am 3.4 NW 5 7 1030.7 - 0.0 - - 10 - - - -
29/04:00am 3.7 NW 7 7 1030.7 - 0.0 - - 10 - - - -
29/03:30am 4.5 NW 6 10 1030.6 - 0.0 - - 10 - - - -
29/03:00am 4.6 NW 6 9 1030.8 - 0.0 - Cloudy 10 - - - -
29/02:30am 7.6 N 5 7 1030.5 - 0.0 - - 10 - - - -
29/02:00am 9.0 NNE 9 12 1030.6 - 0.0 - - 10 - - - -
29/01:30am 7.2 N 5 7 1031.1 - 0.0 - - 10 - - - -
29/01:00am 8.5 NNE 8 10 1031.1 - 0.0 - - 10 - - - -
29/12:30am 5.1 NNE 5 7 1031.6 - 0.0 - - 10 - - - -
29/12:00am 6.4 NE 5 6 1031.9 - 0.0 - Mostly cloudy 10 - - - -
 
Date/Time
CST
Temp

°C
Wind Pressure Rain
since 9am
mm
Weather Cloud Vis
km
Sea
Height
m
Swell
Dir
 
Speed
knots
Gust
knots
hPa Trend Height
m
Period
s
Dir
28/11:30pm 6.4 NE 4 5 1032.3 - 0.0 - - 10 - - - -
28/11:00pm 7.3 NE 4 6 1033.0 - 0.0 - - 10 - - - -
28/10:30pm 7.8 NE 5 5 1033.4 - 0.0 - - 10 - - - -
28/10:00pm 7.4 NE 5 7 1033.6 - 0.0 - - 10 - - - -
28/09:30pm 5.8 CALM 0 2 1033.8 - 0.0 - - 10 - - - -
28/09:00pm 6.8 NE 3 4 1034.0 - 0.0 - Partly cloudy 10 - - - -
28/08:30pm 8.3 NE 4 4 1033.5 - 0.0 - - 10 - - - -
28/08:00pm 8.9 ENE 6 7 1033.4 - 0.0 - - 10 - - - -
28/07:30pm 9.0 E 5 6 1033.4 - 0.0 - - 10 - - - -
28/07:00pm 9.6 ESE 5 5 1033.6 - 0.0 - - 10 - - - -
28/06:30pm 10.3 ESE 6 8 1033.5 - 0.0 - - 10 - - - -
28/06:00pm 10.4 ESE 6 7 1033.4 - 0.0 - - 10 - - - -
28/05:30pm 11.3 ESE 6 8 1033.5 - 0.0 - - 10 - - - -
28/05:00pm 12.5 SSE 6 8 1033.7 - 0.0 - - 10 - - - -
28/04:30pm 12.9 E 9 11 1033.2 - 0.0 - - 10 - - - -
28/04:00pm 13.4 ESE 9 12 1033.3 - 0.0 - - 10 - - - -
28/03:30pm 13.4 ESE 10 12 1033.5 - 0.0 - - 10 - - - -
28/03:00pm 13.5 E 10 13 1033.7 - 0.0 - - 10 - - - -
28/02:30pm 13.6 E 9 12 1033.8 - 0.0 - - 10 - - - -
28/02:00pm 13.3 ESE 9 12 1034.1 - 0.0 - - 10 - - - -
28/01:30pm 12.8 ESE 8 11 1034.8 - 0.0 - - 10 - - - -
28/01:00pm 12.7 ESE 9 12 1035.2 - 0.0 - - 10 - - - -
28/12:30pm 13.1 ESE 8 12 1035.9 - 0.0 - Partly cloudy 10 - - - -
28/12:00pm 13.2 E 8 11 1036.5 - 0.0 - - 10 - - - -
28/11:30am 13.0 NE 6 10 1037.1 - 0.0 - Partly cloudy 10 - - - -
28/11:00am 12.5 E 6 9 1037.7 - 0.0 - - 10 - - - -
28/10:30am 12.3 ENE 5 8 1037.8 - 0.0 - - 10 - - - -
28/10:00am 11.9 NE 3 5 1037.8 - 0.0 - - 10 - - - -
28/09:30am 9.7 NNW 3 4 1037.5 - 0.0 - - 10 - - - -
28/09:00am 7.3 NNW 3 5 1037.7 - 0.0 - - 10 - - - -
28/08:30am 4.6 NNW 5 7 1038.0 - 0.0 - - 10 - - - -
28/08:00am 1.8 NNW 5 6 1038.0 - 0.0 - - 10 - - - -
28/07:30am 0.2 NW 5 5 1038.0 - 0.0 - - 10 - - - -
28/07:00am 0.3 NNW 5 5 1037.6 - 0.0 - - 10 - - - -
28/06:30am 0.7 NNW 6 6 1037.7 - 0.0 - - 10 - - - -
28/06:00am 0.8 NW 5 6 1037.2 - 0.0 - - 10 - - - -
28/05:30am 1.0 NW 5 6 1036.9 - 0.0 - - 10 - - - -
28/05:00am 1.3 NW 5 6 1036.5 - 0.0 - - 10 - - - -
28/04:30am 1.2 NNW 4 5 1036.5 - 0.0 - - 10 - - - -
28/04:00am 1.2 NW 5 6 1036.3 - 0.0 - - 10 - - - -
28/03:30am 1.6 NW 5 6 1036.5 - 0.0 - - 10 - - - -
28/03:00am 1.7 NW 5 6 1036.6 - 0.0 - - 10 - - - -
28/02:30am 2.0 NW 5 6 1036.4 - 0.0 - - 10 - - - -
28/02:00am 2.5 NNW 5 6 1036.3 - 0.0 - - 10 - - - -
28/01:30am 2.2 NNW 6 7 1036.4 - 0.0 - - 10 - - - -
28/01:00am 2.5 NW 5 6 1036.6 - 0.0 - - 10 - - - -
28/12:30am 2.8 NW 5 6 1036.5 - 0.0 - - 10 - - - -
28/12:00am 3.0 NW 5 6 1036.7 - 0.0 - - 10 - - - -
 
Date/Time
CST
Temp

°C
Wind Pressure Rain
since 9am
mm
Weather Cloud Vis
km
Sea
Height
m
Swell
Dir
 
Speed
knots
Gust
knots
hPa Trend Height
m
Period
s
Dir
27/11:30pm 3.2 NNW 5 6 1036.5 - 0.0 - - 10 - - - -
27/11:00pm 3.3 NW 4 5 1036.7 - 0.0 - - 10 - - - -
27/10:30pm 3.9 WNW 4 5 1036.6 - 0.0 - - 10 - - - -
27/10:00pm 4.2 W 4 5 1036.8 - 0.0 - - 10 - - - -
27/09:30pm 4.8 NW 4 5 1036.6 - 0.0 - - 10 - - - -
27/09:00pm 5.9 NW 4 5 1036.5 - 0.0 - Mostly clear 10 - - - -
27/08:30pm 6.6 NW 1 4 1036.4 - 0.0 - Cloudy 10 - - - -
27/08:00pm 4.9 S 3 4 1036.6 - 0.0 - Partly cloudy 10 - - - -

Other Formats:

Comma delimited format used in spreadsheet applications
http://www.bom.gov.au/fwo/IDS60701/IDS60701.95664.axf

JavaScript Object Notation format (JSON) in row-major order
http://www.bom.gov.au/fwo/IDS60701/IDS60701.95664.json